sensor_id;sensor_type;location;lat;lon;timestamp;temperature;humidity
23815;DHT22;12088;53.078;8.720;2022-12-15T00:00:59;-4.70;99.90
23815;DHT22;12088;53.078;8.720;2022-12-15T00:03:43;-4.80;99.90
23815;DHT22;12088;53.078;8.720;2022-12-15T00:06:27;-4.70;99.90
23815;DHT22;12088;53.078;8.720;2022-12-15T00:09:12;-4.70;99.90
23815;DHT22;12088;53.078;8.720;2022-12-15T00:11:56;-4.60;99.90
23815;DHT22;12088;53.078;8.720;2022-12-15T00:14:40;-4.80;99.90
23815;DHT22;12088;53.078;8.720;2022-12-15T00:17:24;-4.80;99.90
23815;DHT22;12088;53.078;8.720;2022-12-15T00:20:08;-4.70;99.90
23815;DHT22;12088;53.078;8.720;2022-12-15T00:22:53;-4.60;99.90
23815;DHT22;12088;53.078;8.720;2022-12-15T00:25:37;-4.70;99.90
23815;DHT22;12088;53.078;8.720;2022-12-15T00:28:21;-4.80;99.90
23815;DHT22;12088;53.078;8.720;2022-12-15T00:31:05;-4.80;99.90
23815;DHT22;12088;53.078;8.720;2022-12-15T00:33:49;-4.90;99.90
23815;DHT22;12088;53.078;8.720;2022-12-15T00:36:33;-4.80;99.90
23815;DHT22;12088;53.078;8.720;2022-12-15T00:39:17;-4.80;99.90
23815;DHT22;12088;53.078;8.720;2022-12-15T00:41:43;-4.80;99.90
23815;DHT22;12088;53.078;8.720;2022-12-15T00:44:08;-4.80;99.90
23815;DHT22;12088;53.078;8.720;2022-12-15T00:46:34;-4.80;99.90
23815;DHT22;12088;53.078;8.720;2022-12-15T00:49:18;-4.70;99.90
23815;DHT22;12088;53.078;8.720;2022-12-15T00:52:02;-4.70;99.90
23815;DHT22;12088;53.078;8.720;2022-12-15T00:54:46;-4.70;99.90
23815;DHT22;12088;53.078;8.720;2022-12-15T00:57:30;-4.70;99.90
23815;DHT22;12088;53.078;8.720;2022-12-15T01:00:14;-4.80;99.90
23815;DHT22;12088;53.078;8.720;2022-12-15T01:02:58;-4.70;99.90
23815;DHT22;12088;53.078;8.720;2022-12-15T01:05:42;-4.60;99.90
23815;DHT22;12088;53.078;8.720;2022-12-15T01:08:27;-4.70;99.90
23815;DHT22;12088;53.078;8.720;2022-12-15T01:11:11;-4.70;99.90
23815;DHT22;12088;53.078;8.720;2022-12-15T01:13:55;-4.70;99.90
23815;DHT22;12088;53.078;8.720;2022-12-15T01:16:39;-4.80;99.90
23815;DHT22;12088;53.078;8.720;2022-12-15T01:19:23;-4.80;99.90
23815;DHT22;12088;53.078;8.720;2022-12-15T01:22:07;-4.90;99.90
23815;DHT22;12088;53.078;8.720;2022-12-15T01:24:33;-5.10;99.90
23815;DHT22;12088;53.078;8.720;2022-12-15T01:26:59;-5.20;99.90
23815;DHT22;12088;53.078;8.720;2022-12-15T01:29:30;-5.20;99.90
23815;DHT22;12088;53.078;8.720;2022-12-15T01:31:56;-5.00;99.90
23815;DHT22;12088;53.078;8.720;2022-12-15T01:34:37;-5.10;99.90
23815;DHT22;12088;53.078;8.720;2022-12-15T01:37:06;-5.10;99.90
23815;DHT22;12088;53.078;8.720;2022-12-15T01:39:31;-4.90;99.90
23815;DHT22;12088;53.078;8.720;2022-12-15T01:42:17;-4.90;99.90
23815;DHT22;12088;53.078;8.720;2022-12-15T01:44:46;-4.90;99.90
23815;DHT22;12088;53.078;8.720;2022-12-15T01:47:13;-4.90;99.90
23815;DHT22;12088;53.078;8.720;2022-12-15T01:49:40;-4.90;99.90
23815;DHT22;12088;53.078;8.720;2022-12-15T01:52:08;-4.90;99.90
23815;DHT22;12088;53.078;8.720;2022-12-15T01:54:42;-4.90;99.90
23815;DHT22;12088;53.078;8.720;2022-12-15T01:57:14;-5.00;99.90
23815;DHT22;12088;53.078;8.720;2022-12-15T01:59:44;-5.00;99.90
23815;DHT22;12088;53.078;8.720;2022-12-15T02:02:16;-5.00;99.90
23815;DHT22;12088;53.078;8.720;2022-12-15T02:04:43;-4.90;99.90
23815;DHT22;12088;53.078;8.720;2022-12-15T02:07:13;-4.80;99.90
23815;DHT22;12088;53.078;8.720;2022-12-15T02:09:40;-4.70;99.90
23815;DHT22;12088;53.078;8.720;2022-12-15T02:17:56;-4.60;99.90
23815;DHT22;12088;53.078;8.720;2022-12-15T02:23:40;-4.60;99.90
23815;DHT22;12088;53.078;8.720;2022-12-15T02:29:51;-4.50;99.90
23815;DHT22;12088;53.078;8.720;2022-12-15T02:32:38;-4.50;99.90
23815;DHT22;12088;53.078;8.720;2022-12-15T02:35:19;-4.60;99.90
23815;DHT22;12088;53.078;8.720;2022-12-15T02:37:48;-4.60;99.90
23815;DHT22;12088;53.078;8.720;2022-12-15T02:40:14;-4.50;99.90
23815;DHT22;12088;53.078;8.720;2022-12-15T02:42:44;-4.40;99.90
23815;DHT22;12088;53.078;8.720;2022-12-15T02:45:15;-4.50;99.90
23815;DHT22;12088;53.078;8.720;2022-12-15T02:48:27;-4.60;99.90
23815;DHT22;12088;53.078;8.720;2022-12-15T02:53:43;-4.60;99.90
23815;DHT22;12088;53.078;8.720;2022-12-15T02:59:12;-4.80;99.90
23815;DHT22;12088;53.078;8.720;2022-12-15T03:04:09;-5.20;99.90
23815;DHT22;12088;53.078;8.720;2022-12-15T03:06:36;-5.10;99.90
23815;DHT22;12088;53.078;8.720;2022-12-15T03:09:02;-5.00;99.90
23815;DHT22;12088;53.078;8.720;2022-12-15T03:11:28;-5.10;99.90
23815;DHT22;12088;53.078;8.720;2022-12-15T03:13:54;-5.10;99.90
23815;DHT22;12088;53.078;8.720;2022-12-15T03:16:20;-5.10;99.90
23815;DHT22;12088;53.078;8.720;2022-12-15T03:18:46;-5.10;99.90
23815;DHT22;12088;53.078;8.720;2022-12-15T03:21:12;-5.10;99.90
23815;DHT22;12088;53.078;8.720;2022-12-15T03:23:37;-5.00;99.90
23815;DHT22;12088;53.078;8.720;2022-12-15T03:26:03;-4.90;99.90
23815;DHT22;12088;53.078;8.720;2022-12-15T03:28:29;-5.00;99.90
23815;DHT22;12088;53.078;8.720;2022-12-15T03:30:54;-5.00;99.90
23815;DHT22;12088;53.078;8.720;2022-12-15T03:33:21;-4.90;99.90
23815;DHT22;12088;53.078;8.720;2022-12-15T03:35:46;-4.90;99.90
23815;DHT22;12088;53.078;8.720;2022-12-15T03:38:12;-4.90;99.90
23815;DHT22;12088;53.078;8.720;2022-12-15T03:40:37;-5.00;99.90
23815;DHT22;12088;53.078;8.720;2022-12-15T03:43:03;-5.10;99.90
23815;DHT22;12088;53.078;8.720;2022-12-15T03:45:28;-5.10;99.90
23815;DHT22;12088;53.078;8.720;2022-12-15T03:47:55;-5.10;99.90
23815;DHT22;12088;53.078;8.720;2022-12-15T03:50:23;-5.10;99.90
23815;DHT22;12088;53.078;8.720;2022-12-15T03:52:59;-5.00;99.90
23815;DHT22;12088;53.078;8.720;2022-12-15T03:55:26;-5.00;99.90
23815;DHT22;12088;53.078;8.720;2022-12-15T03:57:53;-4.90;99.90
23815;DHT22;12088;53.078;8.720;2022-12-15T04:00:19;-4.70;99.90
23815;DHT22;12088;53.078;8.720;2022-12-15T04:02:46;-4.70;99.90
23815;DHT22;12088;53.078;8.720;2022-12-15T04:05:18;-4.60;99.90
23815;DHT22;12088;53.078;8.720;2022-12-15T04:07:44;-4.60;99.90
23815;DHT22;12088;53.078;8.720;2022-12-15T04:10:10;-4.60;99.90
23815;DHT22;12088;53.078;8.720;2022-12-15T04:12:36;-4.50;99.90
23815;DHT22;12088;53.078;8.720;2022-12-15T04:15:05;-4.60;99.90
23815;DHT22;12088;53.078;8.720;2022-12-15T04:17:30;-4.70;99.90
23815;DHT22;12088;53.078;8.720;2022-12-15T04:19:56;-4.80;99.90
23815;DHT22;12088;53.078;8.720;2022-12-15T04:22:44;-4.80;99.90
23815;DHT22;12088;53.078;8.720;2022-12-15T04:25:16;-4.80;99.90
23815;DHT22;12088;53.078;8.720;2022-12-15T04:28:00;-4.90;99.90
23815;DHT22;12088;53.078;8.720;2022-12-15T04:31:08;-4.80;99.90
23815;DHT22;12088;53.078;8.720;2022-12-15T04:33:55;-4.80;99.90
23815;DHT22;12088;53.078;8.720;2022-12-15T04:36:41;-4.80;99.90
23815;DHT22;12088;53.078;8.720;2022-12-15T04:39:27;-4.80;99.90
23815;DHT22;12088;53.078;8.720;2022-12-15T04:42:11;-4.80;99.90
23815;DHT22;12088;53.078;8.720;2022-12-15T04:44:58;-4.70;99.90
23815;DHT22;12088;53.078;8.720;2022-12-15T04:47:43;-4.70;99.90
23815;DHT22;12088;53.078;8.720;2022-12-15T04:50:27;-4.70;99.90
23815;DHT22;12088;53.078;8.720;2022-12-15T04:53:17;-4.60;99.90
23815;DHT22;12088;53.078;8.720;2022-12-15T04:56:01;-4.70;99.90
23815;DHT22;12088;53.078;8.720;2022-12-15T04:58:46;-4.70;99.90
23815;DHT22;12088;53.078;8.720;2022-12-15T05:01:32;-4.60;99.90
23815;DHT22;12088;53.078;8.720;2022-12-15T05:04:16;-4.60;99.90
23815;DHT22;12088;53.078;8.720;2022-12-15T05:07:00;-4.70;99.90
23815;DHT22;12088;53.078;8.720;2022-12-15T05:09:44;-4.60;99.90
23815;DHT22;12088;53.078;8.720;2022-12-15T05:12:28;-4.60;99.90
23815;DHT22;12088;53.078;8.720;2022-12-15T05:15:12;-4.50;99.90
23815;DHT22;12088;53.078;8.720;2022-12-15T05:17:56;-4.50;99.90
23815;DHT22;12088;53.078;8.720;2022-12-15T05:20:41;-4.60;99.90
23815;DHT22;12088;53.078;8.720;2022-12-15T05:23:25;-4.70;99.90
23815;DHT22;12088;53.078;8.720;2022-12-15T05:26:09;-4.80;99.90
23815;DHT22;12088;53.078;8.720;2022-12-15T05:28:53;-4.80;99.90
23815;DHT22;12088;53.078;8.720;2022-12-15T05:31:37;-4.80;99.90
23815;DHT22;12088;53.078;8.720;2022-12-15T05:34:31;-4.80;99.90
23815;DHT22;12088;53.078;8.720;2022-12-15T05:36:58;-4.70;99.90
23815;DHT22;12088;53.078;8.720;2022-12-15T05:39:24;-4.70;99.90
23815;DHT22;12088;53.078;8.720;2022-12-15T05:41:52;-4.60;99.90
23815;DHT22;12088;53.078;8.720;2022-12-15T05:44:18;-4.60;99.90
23815;DHT22;12088;53.078;8.720;2022-12-15T05:46:44;-4.50;99.90
23815;DHT22;12088;53.078;8.720;2022-12-15T05:49:12;-4.50;99.90
23815;DHT22;12088;53.078;8.720;2022-12-15T05:51:40;-4.50;99.90
23815;DHT22;12088;53.078;8.720;2022-12-15T05:54:07;-4.50;99.90
23815;DHT22;12088;53.078;8.720;2022-12-15T05:56:33;-4.50;99.90
23815;DHT22;12088;53.078;8.720;2022-12-15T05:58:59;-4.40;99.90
23815;DHT22;12088;53.078;8.720;2022-12-15T06:01:25;-4.40;99.90
23815;DHT22;12088;53.078;8.720;2022-12-15T06:03:51;-4.40;99.90
23815;DHT22;12088;53.078;8.720;2022-12-15T06:06:17;-4.40;99.90
23815;DHT22;12088;53.078;8.720;2022-12-15T06:08:43;-4.30;99.90
23815;DHT22;12088;53.078;8.720;2022-12-15T06:11:11;-4.30;99.90
23815;DHT22;12088;53.078;8.720;2022-12-15T06:13:37;-4.30;99.90
23815;DHT22;12088;53.078;8.720;2022-12-15T06:16:05;-4.30;99.90
23815;DHT22;12088;53.078;8.720;2022-12-15T06:18:38;-4.30;99.90
23815;DHT22;12088;53.078;8.720;2022-12-15T06:21:09;-4.30;99.90
23815;DHT22;12088;53.078;8.720;2022-12-15T06:23:35;-4.40;99.90
23815;DHT22;12088;53.078;8.720;2022-12-15T06:26:13;-4.50;99.90
23815;DHT22;12088;53.078;8.720;2022-12-15T06:28:39;-4.60;99.90
23815;DHT22;12088;53.078;8.720;2022-12-15T06:31:07;-4.50;99.90
23815;DHT22;12088;53.078;8.720;2022-12-15T06:33:33;-4.60;99.90
23815;DHT22;12088;53.078;8.720;2022-12-15T06:36:04;-4.50;99.90
23815;DHT22;12088;53.078;8.720;2022-12-15T06:38:31;-4.50;99.90
23815;DHT22;12088;53.078;8.720;2022-12-15T06:40:58;-4.50;99.90
23815;DHT22;12088;53.078;8.720;2022-12-15T06:43:25;-4.50;99.90
23815;DHT22;12088;53.078;8.720;2022-12-15T06:45:51;-4.40;99.90
23815;DHT22;12088;53.078;8.720;2022-12-15T06:48:18;-4.40;99.90
23815;DHT22;12088;53.078;8.720;2022-12-15T06:50:44;-4.40;99.90
23815;DHT22;12088;53.078;8.720;2022-12-15T06:53:13;-4.30;99.90
23815;DHT22;12088;53.078;8.720;2022-12-15T06:55:40;-4.30;99.90
23815;DHT22;12088;53.078;8.720;2022-12-15T06:58:06;-4.20;99.90
23815;DHT22;12088;53.078;8.720;2022-12-15T07:00:35;-4.20;99.90
23815;DHT22;12088;53.078;8.720;2022-12-15T07:03:02;-4.30;99.90
23815;DHT22;12088;53.078;8.720;2022-12-15T07:05:27;-4.30;99.90
23815;DHT22;12088;53.078;8.720;2022-12-15T07:07:53;-4.40;99.90
23815;DHT22;12088;53.078;8.720;2022-12-15T07:10:18;-4.40;99.90
23815;DHT22;12088;53.078;8.720;2022-12-15T07:12:44;-4.40;99.90
23815;DHT22;12088;53.078;8.720;2022-12-15T07:15:10;-4.40;99.90
23815;DHT22;12088;53.078;8.720;2022-12-15T07:17:36;-4.30;99.90
23815;DHT22;12088;53.078;8.720;2022-12-15T07:20:03;-4.30;99.90
23815;DHT22;12088;53.078;8.720;2022-12-15T07:22:29;-4.30;99.90
23815;DHT22;12088;53.078;8.720;2022-12-15T07:24:55;-4.30;99.90
23815;DHT22;12088;53.078;8.720;2022-12-15T07:27:20;-4.30;99.90
23815;DHT22;12088;53.078;8.720;2022-12-15T07:29:46;-4.40;99.90
23815;DHT22;12088;53.078;8.720;2022-12-15T07:32:11;-4.50;99.90
23815;DHT22;12088;53.078;8.720;2022-12-15T07:34:37;-4.50;99.90
23815;DHT22;12088;53.078;8.720;2022-12-15T07:37:02;-4.40;99.90
23815;DHT22;12088;53.078;8.720;2022-12-15T07:39:28;-4.40;99.90
23815;DHT22;12088;53.078;8.720;2022-12-15T07:41:54;-4.30;99.90
23815;DHT22;12088;53.078;8.720;2022-12-15T07:44:19;-4.20;99.90
23815;DHT22;12088;53.078;8.720;2022-12-15T07:46:45;-4.20;99.90
23815;DHT22;12088;53.078;8.720;2022-12-15T07:49:16;-4.10;99.90
23815;DHT22;12088;53.078;8.720;2022-12-15T07:51:42;-4.10;99.90
23815;DHT22;12088;53.078;8.720;2022-12-15T07:54:12;-4.10;99.90
23815;DHT22;12088;53.078;8.720;2022-12-15T07:56:38;-4.00;99.90
23815;DHT22;12088;53.078;8.720;2022-12-15T07:59:05;-3.90;99.90
23815;DHT22;12088;53.078;8.720;2022-12-15T08:01:31;-3.80;99.90
23815;DHT22;12088;53.078;8.720;2022-12-15T08:03:56;-3.80;99.90
23815;DHT22;12088;53.078;8.720;2022-12-15T08:06:22;-3.90;99.90
23815;DHT22;12088;53.078;8.720;2022-12-15T08:08:48;-3.80;99.90
23815;DHT22;12088;53.078;8.720;2022-12-15T08:11:15;-3.70;99.90
23815;DHT22;12088;53.078;8.720;2022-12-15T08:13:42;-3.50;99.90
23815;DHT22;12088;53.078;8.720;2022-12-15T08:16:08;-3.30;99.90
23815;DHT22;12088;53.078;8.720;2022-12-15T08:18:34;-3.20;99.90
23815;DHT22;12088;53.078;8.720;2022-12-15T08:21:04;-3.00;99.90
23815;DHT22;12088;53.078;8.720;2022-12-15T08:23:31;-2.80;99.90
23815;DHT22;12088;53.078;8.720;2022-12-15T08:28:29;-2.40;99.90
23815;DHT22;12088;53.078;8.720;2022-12-15T08:30:54;-2.20;99.90
23815;DHT22;12088;53.078;8.720;2022-12-15T08:33:20;-1.90;99.90
23815;DHT22;12088;53.078;8.720;2022-12-15T08:35:45;-1.70;99.90
23815;DHT22;12088;53.078;8.720;2022-12-15T08:38:11;-1.90;99.90
23815;DHT22;12088;53.078;8.720;2022-12-15T08:40:37;-1.50;99.90
23815;DHT22;12088;53.078;8.720;2022-12-15T08:43:02;-0.90;99.90
23815;DHT22;12088;53.078;8.720;2022-12-15T08:45:28;-0.60;99.90
23815;DHT22;12088;53.078;8.720;2022-12-15T08:47:54;-0.20;99.90
23815;DHT22;12088;53.078;8.720;2022-12-15T08:50:20;-0.40;99.90
23815;DHT22;12088;53.078;8.720;2022-12-15T08:52:46;-0.20;99.90
23815;DHT22;12088;53.078;8.720;2022-12-15T08:55:11;-0.30;99.90
23815;DHT22;12088;53.078;8.720;2022-12-15T08:57:37;-0.40;99.90
23815;DHT22;12088;53.078;8.720;2022-12-15T09:00:04;-0.60;99.90
23815;DHT22;12088;53.078;8.720;2022-12-15T09:02:30;-1.00;99.90
23815;DHT22;12088;53.078;8.720;2022-12-15T09:04:56;-1.10;99.90
23815;DHT22;12088;53.078;8.720;2022-12-15T09:07:21;-0.90;99.90
23815;DHT22;12088;53.078;8.720;2022-12-15T09:09:47;-1.00;99.90
23815;DHT22;12088;53.078;8.720;2022-12-15T09:12:12;-0.90;99.90
23815;DHT22;12088;53.078;8.720;2022-12-15T09:14:38;-1.20;99.90
23815;DHT22;12088;53.078;8.720;2022-12-15T09:17:04;-1.00;99.90
23815;DHT22;12088;53.078;8.720;2022-12-15T09:19:29;-0.70;99.90
23815;DHT22;12088;53.078;8.720;2022-12-15T09:21:55;-0.40;99.90
23815;DHT22;12088;53.078;8.720;2022-12-15T09:24:21;0.40;99.90
23815;DHT22;12088;53.078;8.720;2022-12-15T09:26:47;1.90;99.90
23815;DHT22;12088;53.078;8.720;2022-12-15T09:29:13;1.80;99.90
23815;DHT22;12088;53.078;8.720;2022-12-15T09:31:39;1.80;99.90
23815;DHT22;12088;53.078;8.720;2022-12-15T09:34:05;2.00;99.90
23815;DHT22;12088;53.078;8.720;2022-12-15T09:36:31;2.80;99.90
23815;DHT22;12088;53.078;8.720;2022-12-15T09:39:00;2.30;99.90
23815;DHT22;12088;53.078;8.720;2022-12-15T09:41:32;2.00;99.90
23815;DHT22;12088;53.078;8.720;2022-12-15T09:52:15;3.30;99.90
23815;DHT22;12088;53.078;8.720;2022-12-15T09:54:42;3.70;99.90
23815;DHT22;12088;53.078;8.720;2022-12-15T09:57:42;4.10;99.90
23815;DHT22;12088;53.078;8.720;2022-12-15T10:06:16;3.50;99.90
23815;DHT22;12088;53.078;8.720;2022-12-15T10:16:56;4.40;99.90
23815;DHT22;12088;53.078;8.720;2022-12-15T10:19:45;4.70;99.90
23815;DHT22;12088;53.078;8.720;2022-12-15T10:22:16;4.00;99.90
23815;DHT22;12088;53.078;8.720;2022-12-15T10:24:44;5.40;99.90
23815;DHT22;12088;53.078;8.720;2022-12-15T10:30:04;4.70;99.90
23815;DHT22;12088;53.078;8.720;2022-12-15T10:33:15;5.20;99.90
23815;DHT22;12088;53.078;8.720;2022-12-15T10:35:43;6.00;99.90
23815;DHT22;12088;53.078;8.720;2022-12-15T10:40:52;6.00;99.90
23815;DHT22;12088;53.078;8.720;2022-12-15T10:46:04;6.20;99.90
23815;DHT22;12088;53.078;8.720;2022-12-15T10:48:30;6.00;99.90
23815;DHT22;12088;53.078;8.720;2022-12-15T10:53:51;5.60;99.90
23815;DHT22;12088;53.078;8.720;2022-12-15T10:56:26;5.40;99.90
23815;DHT22;12088;53.078;8.720;2022-12-15T10:58:57;5.90;99.90
23815;DHT22;12088;53.078;8.720;2022-12-15T11:01:28;5.20;99.90
23815;DHT22;12088;53.078;8.720;2022-12-15T11:03:54;4.90;99.90
23815;DHT22;12088;53.078;8.720;2022-12-15T11:06:29;4.50;99.90
23815;DHT22;12088;53.078;8.720;2022-12-15T11:09:06;3.70;99.90
23815;DHT22;12088;53.078;8.720;2022-12-15T11:11:34;4.00;99.90
23815;DHT22;12088;53.078;8.720;2022-12-15T11:14:26;3.80;99.90
23815;DHT22;12088;53.078;8.720;2022-12-15T11:16:57;3.50;99.90
23815;DHT22;12088;53.078;8.720;2022-12-15T11:19:37;3.70;99.90
23815;DHT22;12088;53.078;8.720;2022-12-15T11:22:30;3.60;99.90
23815;DHT22;12088;53.078;8.720;2022-12-15T11:25:08;3.80;99.90
23815;DHT22;12088;53.078;8.720;2022-12-15T11:27:37;3.70;99.90
23815;DHT22;12088;53.078;8.720;2022-12-15T11:30:15;3.60;99.90
23815;DHT22;12088;53.078;8.720;2022-12-15T11:32:50;3.50;99.90
23815;DHT22;12088;53.078;8.720;2022-12-15T11:35:22;4.00;99.90
23815;DHT22;12088;53.078;8.720;2022-12-15T11:38:07;4.30;99.90
23815;DHT22;12088;53.078;8.720;2022-12-15T11:40:38;4.40;99.90
23815;DHT22;12088;53.078;8.720;2022-12-15T11:43:35;4.20;99.90
23815;DHT22;12088;53.078;8.720;2022-12-15T11:46:19;4.20;99.90
23815;DHT22;12088;53.078;8.720;2022-12-15T11:51:48;3.70;99.90
23815;DHT22;12088;53.078;8.720;2022-12-15T11:54:37;4.10;99.90
23815;DHT22;12088;53.078;8.720;2022-12-15T11:57:26;4.20;99.90
23815;DHT22;12088;53.078;8.720;2022-12-15T12:00:12;3.90;99.90
23815;DHT22;12088;53.078;8.720;2022-12-15T12:08:23;4.20;99.90
23815;DHT22;12088;53.078;8.720;2022-12-15T12:11:00;3.90;99.90
23815;DHT22;12088;53.078;8.720;2022-12-15T12:19:26;5.50;99.90
23815;DHT22;12088;53.078;8.720;2022-12-15T12:21:57;5.70;99.90
23815;DHT22;12088;53.078;8.720;2022-12-15T12:24:34;5.70;99.90
23815;DHT22;12088;53.078;8.720;2022-12-15T12:27:07;5.50;99.90
23815;DHT22;12088;53.078;8.720;2022-12-15T12:29:38;5.90;99.90
23815;DHT22;12088;53.078;8.720;2022-12-15T12:32:27;5.60;99.90
23815;DHT22;12088;53.078;8.720;2022-12-15T12:35:08;4.90;99.90
23815;DHT22;12088;53.078;8.720;2022-12-15T12:37:40;4.40;99.90
23815;DHT22;12088;53.078;8.720;2022-12-15T12:40:21;4.20;99.90
23815;DHT22;12088;53.078;8.720;2022-12-15T12:42:56;4.00;99.90
23815;DHT22;12088;53.078;8.720;2022-12-15T12:45:30;3.80;99.90
23815;DHT22;12088;53.078;8.720;2022-12-15T12:48:00;3.70;99.90
23815;DHT22;12088;53.078;8.720;2022-12-15T12:50:28;3.20;99.90
23815;DHT22;12088;53.078;8.720;2022-12-15T12:52:57;3.20;99.90
23815;DHT22;12088;53.078;8.720;2022-12-15T12:55:34;3.00;99.90
23815;DHT22;12088;53.078;8.720;2022-12-15T12:58:01;2.90;99.90
23815;DHT22;12088;53.078;8.720;2022-12-15T13:00:31;2.60;99.90
23815;DHT22;12088;53.078;8.720;2022-12-15T13:03:16;2.60;99.90
23815;DHT22;12088;53.078;8.720;2022-12-15T13:05:43;2.70;99.90
23815;DHT22;12088;53.078;8.720;2022-12-15T13:10:46;2.80;99.90
23815;DHT22;12088;53.078;8.720;2022-12-15T13:15:45;2.80;99.90
23815;DHT22;12088;53.078;8.720;2022-12-15T13:18:20;2.70;99.90
23815;DHT22;12088;53.078;8.720;2022-12-15T13:20:48;2.90;99.90
23815;DHT22;12088;53.078;8.720;2022-12-15T13:33:55;2.70;99.90
23815;DHT22;12088;53.078;8.720;2022-12-15T13:44:37;2.60;99.90
23815;DHT22;12088;53.078;8.720;2022-12-15T13:52:48;2.50;99.90
23815;DHT22;12088;53.078;8.720;2022-12-15T13:55:23;2.40;99.90
23815;DHT22;12088;53.078;8.720;2022-12-15T13:57:59;2.40;99.90
23815;DHT22;12088;53.078;8.720;2022-12-15T14:00:26;2.40;99.90
23815;DHT22;12088;53.078;8.720;2022-12-15T14:03:05;2.30;99.90
23815;DHT22;12088;53.078;8.720;2022-12-15T14:05:31;2.40;99.90
23815;DHT22;12088;53.078;8.720;2022-12-15T14:07:59;2.30;99.90
23815;DHT22;12088;53.078;8.720;2022-12-15T14:10:53;2.30;99.90
23815;DHT22;12088;53.078;8.720;2022-12-15T14:13:28;2.30;99.90
23815;DHT22;12088;53.078;8.720;2022-12-15T14:18:40;2.00;99.90
23815;DHT22;12088;53.078;8.720;2022-12-15T14:21:19;1.90;99.90
23815;DHT22;12088;53.078;8.720;2022-12-15T14:23:45;1.80;99.90
23815;DHT22;12088;53.078;8.720;2022-12-15T14:26:13;1.80;99.90
23815;DHT22;12088;53.078;8.720;2022-12-15T14:28:42;1.70;99.90
23815;DHT22;12088;53.078;8.720;2022-12-15T14:31:13;1.70;99.90
23815;DHT22;12088;53.078;8.720;2022-12-15T14:33:42;1.60;99.90
23815;DHT22;12088;53.078;8.720;2022-12-15T14:36:11;1.50;99.90
23815;DHT22;12088;53.078;8.720;2022-12-15T14:38:40;1.50;99.90
23815;DHT22;12088;53.078;8.720;2022-12-15T14:41:07;1.50;99.90
23815;DHT22;12088;53.078;8.720;2022-12-15T14:43:37;1.40;99.90
23815;DHT22;12088;53.078;8.720;2022-12-15T14:46:29;1.40;99.90
23815;DHT22;12088;53.078;8.720;2022-12-15T14:49:04;1.30;99.90
23815;DHT22;12088;53.078;8.720;2022-12-15T14:51:41;1.30;99.90
23815;DHT22;12088;53.078;8.720;2022-12-15T14:54:35;1.20;99.90
23815;DHT22;12088;53.078;8.720;2022-12-15T14:57:17;1.00;99.90
23815;DHT22;12088;53.078;8.720;2022-12-15T14:59:45;0.90;99.90
23815;DHT22;12088;53.078;8.720;2022-12-15T15:02:22;0.90;99.90
23815;DHT22;12088;53.078;8.720;2022-12-15T15:05:04;0.90;99.90
23815;DHT22;12088;53.078;8.720;2022-12-15T15:07:33;0.90;99.90
23815;DHT22;12088;53.078;8.720;2022-12-15T15:10:19;0.90;99.90
23815;DHT22;12088;53.078;8.720;2022-12-15T15:12:47;0.90;99.90
23815;DHT22;12088;53.078;8.720;2022-12-15T15:15:16;0.80;99.90
23815;DHT22;12088;53.078;8.720;2022-12-15T15:17:54;0.80;99.90
23815;DHT22;12088;53.078;8.720;2022-12-15T15:25:38;0.70;99.90
23815;DHT22;12088;53.078;8.720;2022-12-15T15:30:55;0.50;99.90
23815;DHT22;12088;53.078;8.720;2022-12-15T15:33:23;0.50;99.90
23815;DHT22;12088;53.078;8.720;2022-12-15T15:35:57;0.40;99.90
23815;DHT22;12088;53.078;8.720;2022-12-15T15:40:55;0.20;99.90
23815;DHT22;12088;53.078;8.720;2022-12-15T15:43:22;0.20;99.90
23815;DHT22;12088;53.078;8.720;2022-12-15T15:45:49;0.20;99.90
23815;DHT22;12088;53.078;8.720;2022-12-15T15:48:20;0.20;99.90
23815;DHT22;12088;53.078;8.720;2022-12-15T15:50:47;0.20;99.90
23815;DHT22;12088;53.078;8.720;2022-12-15T15:53:20;0.20;99.90
23815;DHT22;12088;53.078;8.720;2022-12-15T15:55:47;0.20;99.90
23815;DHT22;12088;53.078;8.720;2022-12-15T15:58:15;0.20;99.90
23815;DHT22;12088;53.078;8.720;2022-12-15T16:00:40;0.00;99.90
23815;DHT22;12088;53.078;8.720;2022-12-15T16:03:06;0.00;99.90
23815;DHT22;12088;53.078;8.720;2022-12-15T16:05:32;0.00;99.90
23815;DHT22;12088;53.078;8.720;2022-12-15T16:07:59;-0.10;99.90
23815;DHT22;12088;53.078;8.720;2022-12-15T16:10:25;-0.10;99.90
23815;DHT22;12088;53.078;8.720;2022-12-15T16:12:53;-0.10;99.90
23815;DHT22;12088;53.078;8.720;2022-12-15T16:15:24;-0.10;99.90
23815;DHT22;12088;53.078;8.720;2022-12-15T16:17:50;-0.10;99.90
23815;DHT22;12088;53.078;8.720;2022-12-15T16:20:20;-0.20;99.90
23815;DHT22;12088;53.078;8.720;2022-12-15T16:22:52;-0.20;99.90
23815;DHT22;12088;53.078;8.720;2022-12-15T16:25:31;-0.20;99.90
23815;DHT22;12088;53.078;8.720;2022-12-15T16:27:57;-0.20;99.90
23815;DHT22;12088;53.078;8.720;2022-12-15T16:30:25;-0.30;99.90
23815;DHT22;12088;53.078;8.720;2022-12-15T16:32:52;-0.40;99.90
23815;DHT22;12088;53.078;8.720;2022-12-15T16:35:18;-0.40;99.90
23815;DHT22;12088;53.078;8.720;2022-12-15T16:37:45;-0.40;99.90
23815;DHT22;12088;53.078;8.720;2022-12-15T16:40:20;-0.50;99.90
23815;DHT22;12088;53.078;8.720;2022-12-15T16:43:13;-0.50;99.90
23815;DHT22;12088;53.078;8.720;2022-12-15T16:45:42;-0.50;99.90
23815;DHT22;12088;53.078;8.720;2022-12-15T16:48:08;-0.50;99.90
23815;DHT22;12088;53.078;8.720;2022-12-15T16:50:36;-0.40;99.90
23815;DHT22;12088;53.078;8.720;2022-12-15T16:53:02;-0.40;99.90
23815;DHT22;12088;53.078;8.720;2022-12-15T16:55:30;-0.50;99.90
23815;DHT22;12088;53.078;8.720;2022-12-15T16:57:58;-0.50;99.90
23815;DHT22;12088;53.078;8.720;2022-12-15T17:00:27;-0.50;99.90
23815;DHT22;12088;53.078;8.720;2022-12-15T17:02:53;-0.70;99.90
23815;DHT22;12088;53.078;8.720;2022-12-15T17:05:19;-0.70;99.90
23815;DHT22;12088;53.078;8.720;2022-12-15T17:07:53;-0.80;99.90
23815;DHT22;12088;53.078;8.720;2022-12-15T17:10:22;-0.90;99.90
23815;DHT22;12088;53.078;8.720;2022-12-15T17:12:49;-0.90;99.90
23815;DHT22;12088;53.078;8.720;2022-12-15T17:15:24;-0.90;99.90
23815;DHT22;12088;53.078;8.720;2022-12-15T17:17:51;-0.90;99.90
23815;DHT22;12088;53.078;8.720;2022-12-15T17:20:22;-1.00;99.90
23815;DHT22;12088;53.078;8.720;2022-12-15T17:22:54;-0.90;99.90
23815;DHT22;12088;53.078;8.720;2022-12-15T17:25:29;-1.00;99.90
23815;DHT22;12088;53.078;8.720;2022-12-15T17:27:56;-1.00;99.90
23815;DHT22;12088;53.078;8.720;2022-12-15T17:30:22;-0.80;99.90
23815;DHT22;12088;53.078;8.720;2022-12-15T17:32:47;-0.90;99.90
23815;DHT22;12088;53.078;8.720;2022-12-15T17:35:14;-0.80;99.90
23815;DHT22;12088;53.078;8.720;2022-12-15T17:37:40;-0.80;99.90
23815;DHT22;12088;53.078;8.720;2022-12-15T17:40:20;-0.80;99.90
23815;DHT22;12088;53.078;8.720;2022-12-15T17:42:47;-0.90;99.90
23815;DHT22;12088;53.078;8.720;2022-12-15T17:47:40;-0.90;99.90
23815;DHT22;12088;53.078;8.720;2022-12-15T17:50:06;-1.00;99.90
23815;DHT22;12088;53.078;8.720;2022-12-15T17:52:31;-1.00;99.90
23815;DHT22;12088;53.078;8.720;2022-12-15T17:55:01;-1.10;99.90
23815;DHT22;12088;53.078;8.720;2022-12-15T17:57:26;-1.10;99.90
23815;DHT22;12088;53.078;8.720;2022-12-15T17:59:55;-1.10;99.90
23815;DHT22;12088;53.078;8.720;2022-12-15T18:02:21;-1.10;99.90